• Join FlightAware (Why Join?)
  • Login
  • US Flag 
01:05AM EDT


 

Airport Tracker/Info


-or-


 

Live Flight TrackerFlight Track Log ✈ SKW6266 ✈ 04-May-2013 ✈ KORD - KFAR

Flight Track Log - Related Links

Times and Time Zones

All times are in EDT time to prevent confusion due to time zone crossing. See the SKW6266 flight status page for this flight to view local times or setup timezone preferences in your user account.

Time Position Orientation Groundspeed Altitude Reporting Facility
EDT Latitude Longitude Course Direction KTS MPH feet Rate Location/Type
05:09PM 42.0000 -87.9500 346° North 164 189 1,500  Level Chicago TRACON
05:11PM 42.0767 -87.9275 12° North 221 254 4,200 1,800 Climbing Chicago Center
05:12PM 42.3219 -88.0096 350° North  Level FlightAware Approximate
05:12PM 42.1514 -87.9047 13° North 275 316 6,300  Level Chicago Center
05:13PM 42.4389 -88.0544 352° North  Level FlightAware Approximate
05:13PM 42.2178 -87.8503 31° Northeast 282 325 9,400  Level Chicago Center
05:14PM 42.5551 -88.0961 346° North  Level FlightAware Approximate
05:14PM 42.3072 -87.7994 23° Northeast 307 353 12,500  Level Chicago Center
05:15PM 42.3925 -87.7917 North 332 382 14,100 1,800 Climbing Chicago Center
05:16PM 42.4842 -87.8356 341° North 358 412 16,300 1,920 Climbing Chicago Center
05:17PM 42.5939 -87.9117 333° Northwest 377 434 18,100 1,740 Climbing Chicago Center
05:18PM 42.6903 -87.9808 332° Northwest 389 448 19,900 1,740 Climbing Chicago Center
05:19PM 42.7897 -88.0497 333° Northwest 397 457 21,700 1,620 Climbing Chicago Center
05:20PM 42.8889 -88.1208 332° Northwest 400 460 23,300 1,440 Climbing Chicago Center
05:21PM 42.9883 -88.1917 332° Northwest 401 461 24,700 1,140 Climbing Chicago Center
05:22PM 43.0883 -88.2639 332° Northwest 405 466 25,700 840 Climbing Chicago Center
05:23PM 43.1494 -88.3958 302° West 416 479 26,500 780 Climbing Chicago Center
05:24PM 43.1939 -88.5461 292° West 418 481 27,400 840 Climbing Chicago Center
05:25PM 43.2400 -88.7003 292° West 428 493 28,300 840 Climbing Chicago Center
05:26PM 43.2933 -88.8817 292° West 435 501 29,200 720 Climbing Chicago Center
05:27PM 43.3389 -89.0372 292° West 436 502 29,800 480 Climbing Chicago Center
05:28PM 43.3853 -89.1950 292° West 442 509 30,300 480 Climbing Chicago Center
05:29PM 43.4325 -89.3544 292° West 448 516 30,900 540 Climbing Chicago Center
05:30PM 43.4792 -89.5153 292° West 452 520 31,500 480 Climbing Chicago Center
05:31PM 43.5233 -89.6764 291° West 449 517 32,000 240 Climbing Chicago Center
05:32PM 43.5669 -89.8411 290° West 456 525 32,000  Level Chicago Center
05:33PM 43.5925 -89.9514 288° West 454 522 32,000  Level Minneapolis Center
05:34PM 43.6292 -90.1133 287° West 444 511 32,000  Level Minneapolis Center
05:35PM 43.6614 -90.2708 286° West 437 503 32,000  Level Minneapolis Center
05:36PM 43.6978 -90.4442 286° West 432 497 32,000  Level Minneapolis Center
05:37PM 43.7333 -90.6128 286° West 425 489 32,000  Level Minneapolis Center
05:38PM 43.7672 -90.7667 287° West 424 488 32,000  Level Minneapolis Center
05:39PM 43.7992 -90.9217 286° West 423 487 32,000  Level Minneapolis Center
05:40PM 43.8319 -91.0753 287° West 422 486 32,000  Level Minneapolis Center
05:41PM 43.8653 -91.2283 287° West 420 483 32,000  Level Minneapolis Center
05:42PM 43.9328 -91.3556 306° West 414 476 32,000  Level Minneapolis Center
05:43PM 44.0075 -91.4811 310° West 423 487 32,000  Level Minneapolis Center
05:44PM 44.0950 -91.6281 310° West 426 490 32,000  Level Minneapolis Center
05:45PM 44.1706 -91.7564 309° West 430 495 32,000  Level Minneapolis Center
05:46PM 44.2475 -91.8856 310° West 432 497 32,000  Level Minneapolis Center
05:47PM 44.3247 -92.0144 310° West 435 501 32,000  Level Minneapolis Center
05:48PM 44.3967 -92.1469 307° West 431 496 32,000  Level Minneapolis Center
05:49PM 44.4767 -92.2772 311° West 440 506 32,000  Level Minneapolis Center
05:50PM 44.5661 -92.4347 309° West 433 498 32,000  Level Minneapolis Center
05:51PM 44.6428 -92.5658 309° West 436 502 32,000  Level Minneapolis Center
05:52PM 44.7175 -92.6942 309° West 431 496 32,000  Level Minneapolis Center
05:53PM 44.7897 -92.8206 309° West 423 487 32,000  Level Minneapolis Center
05:54PM 44.8617 -92.9442 309° West 418 481 32,000  Level Minneapolis Center
05:55PM 44.9319 -93.0681 309° West 414 476 32,000  Level Minneapolis Center
05:56PM 45.0178 -93.2206 309° West 419 482 32,000  Level Minneapolis Center
05:57PM 45.0897 -93.3500 308° West 423 487 32,000  Level Minneapolis Center
05:58PM 45.1631 -93.4811 308° West 426 490 32,000  Level Minneapolis Center
05:59PM 45.2367 -93.6122 309° West 429 494 32,000  Level Minneapolis Center
06:00PM 45.3100 -93.7439 308° West 428 493 32,000  Level Minneapolis Center
06:01PM 45.3814 -93.8758 308° West 425 489 32,000  Level Minneapolis Center
06:02PM 45.4536 -94.0056 308° West 423 487 32,000  Level Minneapolis Center
06:03PM 45.5397 -94.1633 308° West 422 486 32,000  Level Minneapolis Center
06:04PM 45.6094 -94.2928 308° West 417 480 32,000  Level Minneapolis Center
06:06PM 45.6808 -94.4228 308° West 418 481 32,000  Level Minneapolis Center
06:07PM 45.7508 -94.5533 308° West 415 478 32,000  Level Minneapolis Center
06:08PM 45.8206 -94.6825 308° West 413 475 32,000  Level Minneapolis Center
06:09PM 45.8892 -94.8133 307° West 413 475 32,000 -120 Level Minneapolis Center
06:10PM 45.9592 -94.9425 308° West 411 473 31,800 -1,680 Descending Minneapolis Center
06:11PM 46.0331 -95.0839 307° West 417 480 28,600 -3,060 Descending Minneapolis Center
06:12PM 46.1031 -95.2167 307° West 418 481 25,600 -3,240 Descending Minneapolis Center
06:13PM 46.1844 -95.3722 307° West 410 472 22,000 -3,180 Descending Minneapolis Center
06:14PM 46.2511 -95.4972 308° West 400 460 19,100 -2,640 Descending Minneapolis Center
06:15PM 46.3131 -95.6169 307° West 382 440 16,700 -2,460 Descending Minneapolis Center
06:16PM 46.3714 -95.7322 306° West 364 419 14,100 -2,580 Descending Minneapolis Center
06:17PM 46.4289 -95.8436 307° West 345 397 11,500 -1,980 Descending Minneapolis Center
06:18PM 46.4786 -95.9556 303° West 315 362 10,100 -1,080 Descending Minneapolis Center
06:19PM 46.5192 -96.0547 301° West 279 321 9,300 -720 Descending Minneapolis Center
06:20PM 46.5589 -96.1561 300° West 278 320 8,700 -540 Descending Minneapolis Center
06:21PM 46.5944 -96.2475 300° West 270 311 8,200 -660 Descending Minneapolis Center
06:22PM 46.6289 -96.3361 300° West 239 275 7,400 -960 Descending Minneapolis Center
06:23PM 46.6625 -96.4222 300° West 235 270 6,300 -1,080 Descending Minneapolis Center
06:24PM 46.6956 -96.5081 299° West 234 269 5,300 -1,020 Descending Minneapolis Center
06:25PM 46.7253 -96.5839 300° West 227 261 4,300 -1,020 Descending Minneapolis Center
06:26PM 46.7561 -96.6628 300° West 217 250 3,300 -780 Descending Minneapolis Center
06:27PM 46.7856 -96.7372 300° West 205 236 2,800 -480 Descending Minneapolis Center
06:28PM 46.8142 -96.8031 302° West 198 228 2,400 -360 Descending Minneapolis Center
06:29PM 46.8583 -96.8169 348° North 158 182 2,100 -540 Descending Minneapolis Center
06:30PM 46.8947 -96.8164 North 134 154 1,300 -780 Descending Minneapolis Center